Time;durP1;ratioP1;P1;durP2;ratioP2;P2;SDS_P1;SDS_P2;PMS_P1;PMS_P2;Temp;Humidity;BMP_temperature;BMP_pressure;BME280_temperature;BME280_humidity;BME280_pressure;Samples;Min_cycle;Max_cycle;Signal;HPM_P1;HPM_P2
2023/12/02 00:00:07;;;;;;;3.88;3.15;;;19.60;29.30;;;;;;5055767;28;20052;-59
2023/12/02 00:02:37;;;;;;;3.72;2.97;;;19.60;29.30;;;;;;5053054;28;20025;-57
2023/12/02 00:05:04;;;;;;;3.72;3.33;;;19.60;29.30;;;;;;5055269;28;20502;-58
2023/12/02 00:07:30;;;;;;;3.75;3.42;;;19.60;29.30;;;;;;5053816;28;20033;-56
2023/12/02 00:09:57;;;;;;;4.10;3.70;;;19.50;29.20;;;;;;5055851;28;20102;-56
2023/12/02 00:12:22;;;;;;;4.15;3.40;;;19.50;29.20;;;;;;5055480;28;20104;-55
2023/12/02 00:14:48;;;;;;;4.20;3.70;;;19.50;29.20;;;;;;5038035;28;20409;-56
2023/12/02 00:17:14;;;;;;;3.55;3.10;;;19.50;29.20;;;;;;5055094;28;20452;-56
2023/12/02 00:19:40;;;;;;;3.35;3.05;;;19.50;29.20;;;;;;5055456;28;20021;-54
2023/12/02 00:22:06;;;;;;;4.25;3.85;;;19.50;29.20;;;;;;5037175;28;20083;-59
2023/12/02 00:24:32;;;;;;;3.65;3.25;;;19.50;29.70;;;;;;5054993;28;20058;-56
2023/12/02 00:26:58;;;;;;;3.67;3.05;;;19.50;29.20;;;;;;5054889;28;20029;-57
2023/12/02 00:29:24;;;;;;;3.75;3.13;;;19.50;29.20;;;;;;5054834;28;20025;-60
2023/12/02 00:31:50;;;;;;;3.40;3.10;;;19.50;29.20;;;;;;5054905;28;20021;-58
2023/12/02 00:34:16;;;;;;;3.58;3.10;;;19.50;29.20;;;;;;5055136;28;20402;-54
2023/12/02 00:36:46;;;;;;;3.60;3.22;;;19.50;29.20;;;;;;5054113;28;20095;-57
2023/12/02 00:39:11;;;;;;;3.45;2.85;;;19.50;29.20;;;;;;5053982;28;20118;-55
2023/12/02 00:41:38;;;;;;;3.90;3.20;;;19.50;29.20;;;;;;5045868;28;20103;-55
2023/12/02 00:44:04;;;;;;;3.88;3.20;;;19.50;29.20;;;;;;5034950;28;20391;-55
2023/12/02 00:46:30;;;;;;;3.35;3.00;;;19.50;29.20;;;;;;5034802;28;20103;-56
2023/12/02 00:48:56;;;;;;;3.58;3.25;;;19.40;29.10;;;;;;5034800;28;20060;-57
2023/12/02 00:51:21;;;;;;;3.63;3.17;;;19.50;29.20;;;;;;5034652;28;20021;-58
2023/12/02 00:53:47;;;;;;;3.55;3.10;;;19.40;29.10;;;;;;5033931;28;20028;-56
2023/12/02 00:56:13;;;;;;;3.78;3.38;;;19.40;29.10;;;;;;5034253;28;20456;-58
2023/12/02 00:58:39;;;;;;;4.10;3.70;;;19.40;29.10;;;;;;5016551;28;20071;-57
2023/12/02 01:01:05;;;;;;;3.28;2.83;;;19.40;29.10;;;;;;5016961;28;20040;-57
2023/12/02 01:03:31;;;;;;;3.40;2.90;;;19.40;29.10;;;;;;5034550;28;20344;-59
2023/12/02 01:05:57;;;;;;;3.53;3.22;;;19.40;29.10;;;;;;5033742;28;20048;-59
2023/12/02 01:08:23;;;;;;;3.28;2.97;;;19.40;29.10;;;;;;5033955;28;20029;-58
2023/12/02 01:10:48;;;;;;;3.42;3.08;;;19.40;29.10;;;;;;4998910;28;20029;-58
2023/12/02 01:13:14;;;;;;;4.50;3.33;;;19.40;29.10;;;;;;5034635;28;20048;-57
2023/12/02 01:15:40;;;;;;;3.92;3.53;;;19.40;29.10;;;;;;5034077;28;20101;-55
2023/12/02 01:18:06;;;;;;;3.67;3.10;;;19.40;29.10;;;;;;5016409;28;20021;-54
2023/12/02 01:20:32;;;;;;;3.28;2.83;;;19.40;29.10;;;;;;5034467;28;20028;-58
2023/12/02 01:22:58;;;;;;;3.80;3.33;;;19.40;29.10;;;;;;5034187;28;20487;-54
2023/12/02 01:25:24;;;;;;;3.88;3.08;;;19.30;29.00;;;;;;5033569;28;20433;-58
2023/12/02 01:27:50;;;;;;;3.58;3.28;;;19.30;29.00;;;;;;5034194;28;20032;-58
2023/12/02 01:30:16;;;;;;;3.90;3.20;;;19.40;29.00;;;;;;5016347;28;20034;-57
2023/12/02 01:32:42;;;;;;;3.42;3.08;;;19.30;29.00;;;;;;5034560;28;20437;-57
2023/12/02 01:35:08;;;;;;;3.30;3.00;;;19.40;29.10;;;;;;5034174;28;20032;-57
2023/12/02 01:37:34;;;;;;;3.85;3.10;;;19.30;29.00;;;;;;5016109;28;20407;-54
2023/12/02 01:39:59;;;;;;;4.38;3.20;;;19.30;29.00;;;;;;5034395;28;20075;-59
2023/12/02 01:42:25;;;;;;;3.30;2.90;;;19.30;29.00;;;;;;5041007;28;20041;-54
2023/12/02 01:44:51;;;;;;;3.65;3.20;;;19.30;29.00;;;;;;5041602;28;20368;-55
2023/12/02 01:47:17;;;;;;;2.90;2.60;;;19.30;29.00;;;;;;5047277;28;20115;-52
2023/12/02 01:49:44;;;;;;;3.67;3.22;;;19.30;29.00;;;;;;5024603;28;20040;-57
2023/12/02 01:52:11;;;;;;;3.53;2.92;;;19.30;29.00;;;;;;5043624;28;20026;-53
2023/12/02 01:54:37;;;;;;;3.40;3.08;;;19.30;29.00;;;;;;5043531;28;20028;-59
2023/12/02 01:57:03;;;;;;;3.10;2.80;;;19.30;29.00;;;;;;5043763;28;20033;-59
2023/12/02 01:59:30;;;;;;;3.22;2.92;;;19.30;29.00;;;;;;5045162;28;20480;-55
2023/12/02 02:02:00;;;;;;;3.90;3.03;;;19.30;29.00;;;;;;5044608;28;20495;-58
2023/12/02 02:04:26;;;;;;;3.30;3.00;;;19.30;29.00;;;;;;5042567;28;20025;-55
2023/12/02 02:06:52;;;;;;;3.05;2.60;;;19.20;29.00;;;;;;5044118;28;20041;-57
2023/12/02 02:09:18;;;;;;;3.30;2.88;;;19.30;29.00;;;;;;5022850;28;20030;-59
2023/12/02 02:11:48;;;;;;;3.40;3.10;;;19.20;29.00;;;;;;5009335;28;20462;-56
2023/12/02 02:14:14;;;;;;;3.35;2.72;;;19.20;28.90;;;;;;5042339;28;20133;-58
2023/12/02 02:16:40;;;;;;;3.10;2.80;;;19.20;29.00;;;;;;5044378;28;20104;-58
2023/12/02 02:19:10;;;;;;;3.17;2.85;;;19.20;29.00;;;;;;5044409;28;20021;-57
2023/12/02 02:21:36;;;;;;;3.28;2.80;;;19.20;29.00;;;;;;5042415;28;20029;-56
2023/12/02 02:24:01;;;;;;;3.08;2.72;;;19.20;29.00;;;;;;5044956;28;20116;-56
2023/12/02 02:26:27;;;;;;;2.97;2.67;;;19.20;29.00;;;;;;5043663;28;20134;-60
2023/12/02 02:28:53;;;;;;;3.15;2.75;;;19.20;29.00;;;;;;5045720;28;20328;-54
2023/12/02 02:31:19;;;;;;;3.10;2.80;;;19.20;29.00;;;;;;5044900;28;20017;-57
2023/12/02 02:33:45;;;;;;;3.28;2.70;;;19.20;29.00;;;;;;5044603;28;20519;-56
2023/12/02 02:36:11;;;;;;;3.38;2.90;;;19.20;28.90;;;;;;5025105;28;20029;-54
2023/12/02 02:38:37;;;;;;;3.10;2.78;;;19.20;28.90;;;;;;5031600;28;20032;-58
2023/12/02 02:41:02;;;;;;;2.90;2.60;;;19.20;28.90;;;;;;5045071;28;20099;-56
2023/12/02 02:43:28;;;;;;;3.15;2.85;;;19.20;28.90;;;;;;5037404;28;20030;-58
2023/12/02 02:45:54;;;;;;;2.75;2.50;;;19.10;28.90;;;;;;5036839;28;20057;-57
2023/12/02 02:48:20;;;;;;;3.10;2.80;;;19.20;28.90;;;;;;5036707;28;20032;-57
2023/12/02 02:50:46;;;;;;;3.05;2.70;;;19.20;28.90;;;;;;5037081;28;20025;-58
2023/12/02 02:53:12;;;;;;;3.55;3.00;;;19.20;29.00;;;;;;5019561;28;20025;-55
2023/12/02 02:55:38;;;;;;;3.80;2.92;;;19.10;28.90;;;;;;5036519;28;20449;-56
2023/12/02 02:58:04;;;;;;;3.58;2.90;;;19.20;29.00;;;;;;5036833;28;20021;-57
2023/12/02 03:00:30;;;;;;;3.10;2.78;;;19.10;28.90;;;;;;5036986;28;20075;-55
2023/12/02 03:02:55;;;;;;;3.70;3.00;;;19.10;28.90;;;;;;5018855;28;20099;-57
2023/12/02 03:05:21;;;;;;;2.90;2.70;;;19.10;28.90;;;;;;5036583;28;20033;-53
2023/12/02 03:07:47;;;;;;;3.63;3.30;;;19.10;28.90;;;;;;5017996;28;20531;-57
2023/12/02 03:10:13;;;;;;;3.20;2.90;;;19.10;28.90;;;;;;5036335;28;20408;-56
2023/12/02 03:12:39;;;;;;;3.10;2.80;;;19.10;28.90;;;;;;5036721;28;20056;-57
2023/12/02 03:15:05;;;;;;;3.20;2.83;;;19.10;28.90;;;;;;5019099;28;20017;-60
2023/12/02 03:17:31;;;;;;;3.50;3.20;;;19.10;28.90;;;;;;5015788;28;20036;-57
2023/12/02 03:19:57;;;;;;;3.47;3.17;;;19.10;28.90;;;;;;5019270;28;20033;-58
2023/12/02 03:22:23;;;;;;;3.70;3.08;;;19.10;28.90;;;;;;5018717;28;20100;-56
2023/12/02 03:24:48;;;;;;;3.92;3.50;;;19.10;28.90;;;;;;5035945;28;21592;-57
2023/12/02 03:27:14;;;;;;;3.38;2.95;;;19.10;28.90;;;;;;4999731;28;20045;-57
2023/12/02 03:29:40;;;;;;;3.67;2.97;;;19.10;28.90;;;;;;5036836;28;20029;-55
2023/12/02 03:32:06;;;;;;;4.00;3.33;;;19.00;28.90;;;;;;5036756;28;20025;-58
2023/12/02 03:34:32;;;;;;;3.67;3.20;;;19.00;28.90;;;;;;5036404;28;20049;-55
2023/12/02 03:36:58;;;;;;;3.55;3.25;;;19.00;28.90;;;;;;5018472;28;20029;-53
2023/12/02 03:39:23;;;;;;;3.80;2.95;;;19.00;28.90;;;;;;5036052;28;20026;-56
2023/12/02 03:41:49;;;;;;;3.33;2.80;;;19.00;29.40;;;;;;5039002;28;20518;-55
2023/12/02 03:44:15;;;;;;;3.13;2.80;;;19.00;28.90;;;;;;5047656;28;20021;-54
2023/12/02 03:46:43;;;;;;;3.97;3.45;;;19.00;28.90;;;;;;5026860;28;20044;-57
2023/12/02 03:49:09;;;;;;;3.35;3.00;;;19.00;28.90;;;;;;5046760;28;20055;-55
2023/12/02 03:51:35;;;;;;;3.85;3.40;;;19.00;28.90;;;;;;5045710;28;20030;-51
2023/12/02 03:54:01;;;;;;;3.50;3.03;;;19.00;28.90;;;;;;5026717;28;20048;-54
2023/12/02 03:56:27;;;;;;;3.13;2.83;;;19.00;28.90;;;;;;5043769;28;20049;-56
2023/12/02 03:58:53;;;;;;;3.40;3.03;;;19.00;28.90;;;;;;5043946;28;20060;-55
2023/12/02 04:01:19;;;;;;;3.65;3.30;;;19.00;29.00;;;;;;5044523;28;20033;-52
2023/12/02 04:03:45;;;;;;;4.20;3.05;;;19.00;29.00;;;;;;5046748;28;20025;-57
2023/12/02 04:06:11;;;;;;;3.88;3.25;;;19.00;28.90;;;;;;5046083;28;20121;-54
2023/12/02 04:08:37;;;;;;;3.85;3.20;;;19.00;28.90;;;;;;5043138;28;20444;-55
2023/12/02 04:11:03;;;;;;;3.75;3.17;;;19.00;29.00;;;;;;5044154;28;20357;-56
2023/12/02 04:13:29;;;;;;;3.40;3.10;;;19.00;29.00;;;;;;5042085;28;20022;-57
2023/12/02 04:15:55;;;;;;;4.32;3.30;;;19.00;29.00;;;;;;5044673;28;20036;-53
2023/12/02 04:18:21;;;;;;;3.17;2.75;;;19.00;29.00;;;;;;5041111;28;20021;-53
2023/12/02 04:20:47;;;;;;;4.07;3.10;;;18.90;28.90;;;;;;5042389;28;20045;-55
2023/12/02 04:23:14;;;;;;;3.22;2.92;;;18.90;28.90;;;;;;5048345;28;20036;-55
2023/12/02 04:25:40;;;;;;;3.65;3.15;;;18.90;28.90;;;;;;5046189;28;20062;-59
2023/12/02 04:28:07;;;;;;;3.47;3.05;;;18.90;28.90;;;;;;5044398;28;20037;-54
2023/12/02 04:30:34;;;;;;;3.60;3.15;;;18.90;28.90;;;;;;5044690;28;20441;-57
2023/12/02 04:32:59;;;;;;;3.10;2.80;;;18.90;28.90;;;;;;5023208;28;20095;-56
2023/12/02 04:35:25;;;;;;;3.40;3.10;;;18.90;28.90;;;;;;5040978;28;20022;-55
2023/12/02 04:37:51;;;;;;;3.63;3.15;;;18.90;28.90;;;;;;5028044;28;20380;-56
2023/12/02 04:40:17;;;;;;;3.50;3.13;;;18.90;28.90;;;;;;5029265;28;20415;-56
2023/12/02 04:42:43;;;;;;;3.50;3.10;;;18.90;28.90;;;;;;5046419;28;20902;-53
2023/12/02 04:45:10;;;;;;;3.97;3.10;;;18.90;28.90;;;;;;5027835;28;20044;-52
2023/12/02 04:47:36;;;;;;;3.50;3.08;;;18.90;28.90;;;;;;5041059;28;20041;-57
2023/12/02 04:50:06;;;;;;;3.83;3.08;;;18.90;28.90;;;;;;5043687;28;20040;-55
2023/12/02 04:52:32;;;;;;;3.60;3.03;;;18.90;28.90;;;;;;5041334;28;20049;-54
2023/12/02 04:54:58;;;;;;;4.30;3.35;;;18.90;28.90;;;;;;5026885;28;20033;-57
2023/12/02 04:57:27;;;;;;;4.05;3.28;;;18.90;28.90;;;;;;5041601;28;20034;-58
2023/12/02 04:59:53;;;;;;;3.20;2.90;;;18.90;28.90;;;;;;5025045;28;20376;-54
2023/12/02 05:02:20;;;;;;;3.90;3.45;;;18.90;28.90;;;;;;5043786;28;20029;-53
2023/12/02 05:04:46;;;;;;;3.42;3.13;;;18.80;28.90;;;;;;5009342;28;20044;-55
2023/12/02 05:07:13;;;;;;;3.53;2.97;;;18.80;28.90;;;;;;5041385;28;20041;-54
2023/12/02 05:09:39;;;;;;;4.00;3.50;;;18.80;28.90;;;;;;5043692;28;20104;-56
2023/12/02 05:12:06;;;;;;;3.42;2.92;;;18.80;28.90;;;;;;5043685;28;20029;-57
2023/12/02 05:14:32;;;;;;;3.42;3.00;;;18.80;28.90;;;;;;5038187;28;20030;-56
2023/12/02 05:16:58;;;;;;;3.63;3.30;;;18.80;28.90;;;;;;5037470;28;20025;-51
2023/12/02 05:19:24;;;;;;;3.92;3.15;;;18.80;28.90;;;;;;5042908;28;20021;-56
2023/12/02 05:21:50;;;;;;;3.55;3.20;;;18.80;28.90;;;;;;5044817;28;20025;-56
2023/12/02 05:24:19;;;;;;;3.85;3.35;;;18.80;28.90;;;;;;5045724;28;20056;-57
2023/12/02 05:26:45;;;;;;;4.50;3.20;;;18.80;28.90;;;;;;5044535;28;21629;-56
2023/12/02 05:29:11;;;;;;;3.70;3.17;;;18.80;28.90;;;;;;5025856;28;20029;-54
2023/12/02 05:31:38;;;;;;;3.60;3.10;;;18.80;29.00;;;;;;5045882;28;20021;-58
2023/12/02 05:34:04;;;;;;;3.47;3.03;;;18.80;29.20;;;;;;5042720;28;20047;-54
2023/12/02 05:36:30;;;;;;;3.97;3.38;;;18.80;29.20;;;;;;5048639;28;20025;-53
2023/12/02 05:38:56;;;;;;;3.20;2.90;;;18.80;29.20;;;;;;5027687;28;20044;-60
2023/12/02 05:41:22;;;;;;;3.28;2.97;;;18.80;29.10;;;;;;5039796;28;20038;-55
2023/12/02 05:43:48;;;;;;;3.78;3.33;;;18.80;29.10;;;;;;5028656;28;20098;-53
2023/12/02 05:46:17;;;;;;;3.85;3.10;;;18.80;29.10;;;;;;5045685;28;20468;-54
2023/12/02 05:48:46;;;;;;;4.22;3.22;;;18.80;29.10;;;;;;5039433;28;20039;-55
2023/12/02 05:51:13;;;;;;;3.83;3.42;;;18.80;29.00;;;;;;5027289;28;20419;-55
2023/12/02 05:53:42;;;;;;;3.75;3.33;;;18.80;29.00;;;;;;5010025;28;20023;-53
2023/12/02 05:56:08;;;;;;;3.63;3.17;;;18.80;29.00;;;;;;5044547;28;20052;-54
2023/12/02 05:58:35;;;;;;;4.15;3.60;;;18.70;29.00;;;;;;5043521;28;20029;-58
2023/12/02 06:01:01;;;;;;;3.50;3.13;;;18.80;29.00;;;;;;5047065;28;20455;-54
2023/12/02 06:03:27;;;;;;;3.50;2.90;;;18.70;28.90;;;;;;5023106;28;20021;-59
2023/12/02 06:05:53;;;;;;;4.63;3.95;;;18.70;29.00;;;;;;5044110;28;20100;-59
2023/12/02 06:08:19;;;;;;;3.55;3.17;;;18.70;28.90;;;;;;5041691;28;20155;-54
2023/12/02 06:10:45;;;;;;;3.80;3.40;;;18.70;28.90;;;;;;5040800;28;20124;-58
2023/12/02 06:13:11;;;;;;;4.63;3.97;;;18.70;28.90;;;;;;5045140;28;20419;-59
2023/12/02 06:15:37;;;;;;;4.15;3.50;;;18.70;28.90;;;;;;5029742;28;20025;-55
2023/12/02 06:18:03;;;;;;;4.25;3.22;;;18.70;28.90;;;;;;5046605;28;20414;-57
2023/12/02 06:20:29;;;;;;;3.67;3.28;;;18.70;28.90;;;;;;5028793;28;20356;-58
2023/12/02 06:22:55;;;;;;;3.72;3.17;;;18.70;28.90;;;;;;5048815;28;20037;-56
2023/12/02 06:25:20;;;;;;;4.05;3.53;;;18.70;28.90;;;;;;5042101;28;20106;-55
2023/12/02 06:27:46;;;;;;;4.22;3.83;;;18.60;28.90;;;;;;5047354;28;20038;-57
2023/12/02 06:30:18;;;;;;;4.30;3.90;;;18.70;28.90;;;;;;5048503;28;20544;-58
2023/12/02 06:32:44;;;;;;;4.78;3.97;;;18.70;28.90;;;;;;5044619;28;20437;-55
2023/12/02 06:35:11;;;;;;;4.60;3.72;;;18.60;28.90;;;;;;5027373;28;20036;-58
2023/12/02 06:37:36;;;;;;;4.75;3.90;;;18.60;28.90;;;;;;5046118;28;20021;-54
2023/12/02 06:40:03;;;;;;;4.22;3.83;;;18.60;28.90;;;;;;5054555;28;20503;-57
2023/12/02 06:42:29;;;;;;;4.00;3.55;;;18.60;28.90;;;;;;5052749;28;20537;-54
2023/12/02 06:44:55;;;;;;;4.20;3.80;;;18.60;28.90;;;;;;5020819;28;20034;-57
2023/12/02 06:47:21;;;;;;;4.07;3.53;;;18.60;28.90;;;;;;5046342;28;20437;-55
2023/12/02 06:49:47;;;;;;;4.25;3.55;;;18.60;28.90;;;;;;5052604;28;20024;-58
2023/12/02 06:52:12;;;;;;;4.00;3.28;;;18.60;28.90;;;;;;5052997;28;20112;-55
2023/12/02 06:54:38;;;;;;;5.18;4.38;;;18.60;28.90;;;;;;5054224;28;20021;-56
2023/12/02 06:57:05;;;;;;;4.25;3.85;;;18.60;28.90;;;;;;5055552;28;20025;-57
2023/12/02 06:59:31;;;;;;;5.40;4.70;;;18.60;28.90;;;;;;5048080;28;20035;-57
2023/12/02 07:01:57;;;;;;;4.10;3.70;;;18.60;28.90;;;;;;5025453;28;20040;-55
2023/12/02 07:04:23;;;;;;;4.72;3.92;;;18.60;28.90;;;;;;5049357;28;20033;-54
2023/12/02 07:06:49;;;;;;;4.65;4.15;;;18.60;28.90;;;;;;5037173;28;20045;-56
2023/12/02 07:09:15;;;;;;;5.95;4.05;;;18.60;28.90;;;;;;5029690;28;20129;-56
2023/12/02 07:11:41;;;;;;;4.85;4.32;;;18.60;28.90;;;;;;5049891;28;20022;-60
2023/12/02 07:14:07;;;;;;;4.82;3.95;;;18.60;28.90;;;;;;5027787;28;20360;-57
2023/12/02 07:16:33;;;;;;;4.47;3.83;;;18.60;28.90;;;;;;5027273;28;20017;-59
2023/12/02 07:18:59;;;;;;;4.68;3.75;;;18.60;28.90;;;;;;5028373;28;20372;-59
2023/12/02 07:21:25;;;;;;;4.15;3.47;;;18.50;28.90;;;;;;5020286;28;20022;-59
2023/12/02 07:23:51;;;;;;;5.55;4.18;;;18.60;29.00;;;;;;5036273;28;20022;-58
2023/12/02 07:26:17;;;;;;;4.78;4.10;;;18.60;29.10;;;;;;5037259;28;20410;-57
2023/12/02 07:28:43;;;;;;;4.97;4.35;;;18.60;29.10;;;;;;5039460;28;20033;-57
2023/12/02 07:31:16;;;;;;;4.28;3.88;;;18.60;29.10;;;;;;5048468;28;20337;-57
2023/12/02 07:33:45;;;;;;;4.13;3.72;;;18.60;29.00;;;;;;5030787;28;20028;-58
2023/12/02 07:36:11;;;;;;;4.70;3.75;;;18.60;29.00;;;;;;5051624;28;20063;-56
2023/12/02 07:38:40;;;;;;;4.25;3.75;;;18.50;29.00;;;;;;5036830;28;20021;-57
2023/12/02 07:41:08;;;;;;;4.22;3.83;;;18.60;29.00;;;;;;5039902;28;20057;-58
2023/12/02 07:43:33;;;;;;;4.30;3.75;;;18.60;29.00;;;;;;5035737;28;20034;-58
2023/12/02 07:46:00;;;;;;;4.68;4.07;;;18.50;29.00;;;;;;5018049;28;20041;-58
2023/12/02 07:48:25;;;;;;;4.10;3.60;;;18.50;29.00;;;;;;5035409;28;20033;-57
2023/12/02 07:50:51;;;;;;;5.03;3.72;;;18.50;29.00;;;;;;5034927;28;20449;-58
2023/12/02 07:53:17;;;;;;;4.30;3.53;;;18.50;29.00;;;;;;5017812;28;20033;-52
2023/12/02 07:55:43;;;;;;;6.13;3.60;;;18.50;28.90;;;;;;5034756;28;20037;-57
2023/12/02 07:58:09;;;;;;;4.18;3.53;;;18.50;29.40;;;;;;5017646;28;20033;-54
2023/12/02 08:00:35;;;;;;;3.50;3.05;;;18.50;29.10;;;;;;5017754;28;20112;-57
2023/12/02 08:03:01;;;;;;;4.00;3.30;;;18.60;29.20;;;;;;5017000;28;20038;-59
2023/12/02 08:05:27;;;;;;;3.33;2.97;;;18.60;29.20;;;;;;5034312;28;20087;-58
2023/12/02 08:07:53;;;;;;;3.13;2.83;;;18.50;29.20;;;;;;5033576;28;20033;-55
2023/12/02 08:10:19;;;;;;;4.93;3.10;;;18.60;29.30;;;;;;5034234;28;20022;-56
2023/12/02 08:12:45;;;;;;;2.95;2.50;;;18.60;29.40;;;;;;5034306;28;20468;-56
2023/12/02 08:15:11;;;;;;;3.35;2.70;;;18.60;29.50;;;;;;5034295;28;20041;-57
2023/12/02 08:17:37;;;;;;;3.00;2.28;;;18.60;30.00;;;;;;5034589;28;20026;-57
2023/12/02 08:20:05;;;;;;;3.03;2.28;;;18.60;29.60;;;;;;5034260;28;20112;-59
2023/12/02 08:22:32;;;;;;;3.10;2.60;;;18.70;29.70;;;;;;5033772;28;20459;-54
2023/12/02 08:24:58;;;;;;;2.88;2.42;;;18.70;29.80;;;;;;5034750;28;20038;-58
2023/12/02 08:27:24;;;;;;;2.97;2.40;;;18.70;30.30;;;;;;5035149;28;20049;-58
2023/12/02 08:29:50;;;;;;;2.97;2.53;;;18.90;29.90;;;;;;5016093;28;20029;-59
2023/12/02 08:32:15;;;;;;;3.25;2.55;;;18.80;29.80;;;;;;5016083;28;20038;-59
2023/12/02 08:34:42;;;;;;;2.55;2.25;;;19.00;29.90;;;;;;5033918;28;20363;-54
2023/12/02 08:37:07;;;;;;;2.97;2.17;;;19.00;29.90;;;;;;5033967;28;20033;-56
2023/12/02 08:39:34;;;;;;;3.28;2.15;;;19.10;29.90;;;;;;5033903;28;20103;-55
2023/12/02 08:42:00;;;;;;;2.78;2.20;;;19.20;29.90;;;;;;5033397;28;20050;-62
2023/12/02 08:44:26;;;;;;;3.70;2.35;;;19.20;29.80;;;;;;5016118;28;20032;-63
2023/12/02 08:46:54;;;;;;;4.57;2.70;;;19.30;29.90;;;;;;5015862;28;20095;-59
2023/12/02 08:49:20;;;;;;;2.25;1.98;;;19.40;30.00;;;;;;5032850;28;20026;-56
2023/12/02 08:51:47;;;;;;;3.20;2.08;;;19.50;30.00;;;;;;5015189;28;20461;-54
2023/12/02 08:54:13;;;;;;;3.60;2.50;;;19.60;30.00;;;;;;5033304;28;20061;-56
2023/12/02 08:56:39;;;;;;;2.53;2.22;;;19.60;30.00;;;;;;5033442;28;20425;-52
2023/12/02 08:59:05;;;;;;;3.17;2.33;;;19.70;30.00;;;;;;5015757;28;20033;-56
2023/12/02 09:01:31;;;;;;;2.30;2.10;;;19.80;30.00;;;;;;5033872;28;20040;-52
2023/12/02 09:03:57;;;;;;;3.22;2.38;;;19.90;30.00;;;;;;5033767;28;20530;-57
2023/12/02 09:06:23;;;;;;;2.67;2.10;;;19.90;30.00;;;;;;5033288;28;20440;-57
2023/12/02 09:08:49;;;;;;;2.53;2.20;;;20.00;29.90;;;;;;5034535;28;20451;-52
2023/12/02 09:11:15;;;;;;;2.67;2.25;;;20.00;29.90;;;;;;5016360;28;20026;-54
2023/12/02 09:13:48;;;;;;;3.58;2.47;;;20.10;29.90;;;;;;5034259;28;20040;-53
2023/12/02 09:16:17;;;;;;;2.65;2.20;;;20.20;29.90;;;;;;5032610;28;20021;-53
2023/12/02 09:18:43;;;;;;;2.70;2.22;;;20.20;29.80;;;;;;5033250;28;20092;-50
2023/12/02 09:21:29;;;;;;;2.60;2.40;;;20.20;29.70;;;;;;5032953;28;20107;-58
2023/12/02 09:24:01;;;;;;;2.28;2.08;;;20.30;29.60;;;;;;5015608;28;20167;-51
2023/12/02 09:26:41;;;;;;;3.10;2.70;;;20.30;29.50;;;;;;5030550;28;20033;-55
2023/12/02 09:29:08;;;;;;;3.20;2.65;;;20.40;29.40;;;;;;5030543;28;20029;-55
2023/12/02 09:31:34;;;;;;;2.70;2.33;;;20.40;29.30;;;;;;5032815;28;20030;-58
2023/12/02 09:34:02;;;;;;;2.85;2.55;;;20.40;29.20;;;;;;5032248;28;20036;-58
2023/12/02 09:36:35;;;;;;;2.45;2.25;;;20.50;29.20;;;;;;5032608;28;20022;-59
2023/12/02 09:39:16;;;;;;;2.63;2.42;;;20.50;29.10;;;;;;5033588;28;20453;-49
2023/12/02 09:41:50;;;;;;;3.83;2.45;;;20.50;29.00;;;;;;5032899;28;20052;-57
2023/12/02 09:44:47;;;;;;;3.38;2.65;;;20.60;29.00;;;;;;5032919;28;20357;-59
2023/12/02 09:47:19;;;;;;;3.58;2.85;;;20.60;28.90;;;;;;5016927;28;20083;-57
2023/12/02 09:50:04;;;;;;;3.00;2.70;;;20.60;28.90;;;;;;5034509;28;20025;-56
2023/12/02 09:53:07;;;;;;;3.08;2.70;;;20.60;28.90;;;;;;5034091;28;20028;-56
2023/12/02 09:56:03;;;;;;;3.60;2.92;;;20.60;28.80;;;;;;5017358;28;20045;-57
2023/12/02 09:58:40;;;;;;;3.20;2.90;;;20.60;28.80;;;;;;4994969;28;20120;-59
2023/12/02 10:01:17;;;;;;;3.35;2.92;;;20.60;28.80;;;;;;5016930;28;20118;-54
2023/12/02 10:04:04;;;;;;;3.13;2.83;;;20.60;28.80;;;;;;5017031;28;20045;-55
2023/12/02 10:06:44;;;;;;;3.72;3.13;;;20.60;28.70;;;;;;5034424;28;20033;-55
2023/12/02 10:09:47;;;;;;;3.67;3.05;;;20.60;28.70;;;;;;5034655;28;20029;-55
2023/12/02 10:12:47;;;;;;;3.83;3.30;;;20.60;28.70;;;;;;5034497;28;20072;-52
2023/12/02 10:15:16;;;;;;;3.47;2.85;;;20.60;28.60;;;;;;5032717;28;20037;-57
2023/12/02 10:17:52;;;;;;;3.65;3.30;;;20.60;28.70;;;;;;5034276;28;20457;-53
2023/12/02 10:20:26;;;;;;;4.38;3.42;;;20.60;28.60;;;;;;5017240;28;20044;-56
2023/12/02 10:22:57;;;;;;;3.80;3.37;;;20.60;28.60;;;;;;5014972;28;20068;-58
2023/12/02 10:25:33;;;;;;;3.47;3.17;;;20.60;28.60;;;;;;5030997;28;20268;-56
2023/12/02 10:28:29;;;;;;;3.63;3.13;;;20.60;28.60;;;;;;5031409;28;20124;-57
2023/12/02 10:30:59;;;;;;;4.20;3.40;;;20.60;28.70;;;;;;5014799;28;20034;-59
2023/12/02 10:33:52;;;;;;;3.80;3.22;;;20.50;28.70;;;;;;5032873;28;20030;-57
2023/12/02 10:36:20;;;;;;;3.85;3.45;;;20.50;28.80;;;;;;5012232;28;20030;-58
2023/12/02 10:39:06;;;;;;;3.80;3.40;;;20.50;28.80;;;;;;4998566;28;20029;-59
2023/12/02 10:42:03;;;;;;;3.60;3.30;;;20.50;28.80;;;;;;5031832;28;20041;-59
2023/12/02 10:44:32;;;;;;;3.85;3.17;;;20.50;28.80;;;;;;5032091;28;20530;-55
2023/12/02 10:46:59;;;;;;;3.55;3.20;;;20.60;28.80;;;;;;5033205;28;20408;-59
2023/12/02 10:49:28;;;;;;;3.45;3.15;;;20.50;28.80;;;;;;5013115;28;20033;-59
2023/12/02 10:51:56;;;;;;;4.50;3.08;;;20.50;28.70;;;;;;5014106;28;20029;-58
2023/12/02 10:54:26;;;;;;;4.25;3.72;;;20.50;28.70;;;;;;5014416;28;20047;-56
2023/12/02 10:57:03;;;;;;;3.85;3.42;;;20.50;28.70;;;;;;5031979;28;20017;-58
2023/12/02 10:59:34;;;;;;;3.95;3.40;;;20.50;28.70;;;;;;5034881;28;20028;-61
2023/12/02 11:02:25;;;;;;;4.20;3.30;;;20.50;28.70;;;;;;5034361;28;20483;-59
2023/12/02 11:05:19;;;;;;;3.75;3.17;;;20.50;28.70;;;;;;5035235;28;20345;-56
2023/12/02 11:07:51;;;;;;;4.05;3.20;;;20.50;28.70;;;;;;5031336;28;20160;-60
2023/12/02 11:10:30;;;;;;;3.72;3.40;;;20.50;28.80;;;;;;5022619;28;20033;-54
2023/12/02 11:13:01;;;;;;;4.95;3.67;;;20.50;28.80;;;;;;5033532;28;20032;-53
2023/12/02 11:15:28;;;;;;;4.05;3.47;;;20.50;28.80;;;;;;5035290;28;20030;-52
2023/12/02 11:17:56;;;;;;;4.20;3.20;;;20.60;28.90;;;;;;5034577;28;20393;-57
2023/12/02 11:20:33;;;;;;;4.15;3.35;;;20.60;28.80;;;;;;5035288;28;20467;-53
2023/12/02 11:23:20;;;;;;;3.50;2.95;;;20.70;29.30;;;;;;5017365;28;20057;-62
2023/12/02 11:26:07;;;;;;;3.70;3.03;;;20.80;28.90;;;;;;5017940;28;20022;-62
2023/12/02 11:28:59;;;;;;;3.20;2.80;;;20.80;29.10;;;;;;5034621;28;20049;-55
2023/12/02 11:32:04;;;;;;;3.22;2.92;;;20.90;29.30;;;;;;5033226;28;20391;-59
2023/12/02 11:34:58;;;;;;;3.28;2.60;;;21.00;29.20;;;;;;5032834;28;20108;-55
2023/12/02 11:37:50;;;;;;;3.72;3.15;;;21.00;29.10;;;;;;5031756;28;20022;-59
2023/12/02 11:40:34;;;;;;;3.88;3.20;;;21.00;29.00;;;;;;5029975;28;20096;-55
2023/12/02 11:43:06;;;;;;;;;;;21.10;29.00;;;;;;5034551;28;20045;-59
2023/12/02 11:45:37;;;;;;;4.00;3.10;;;21.00;28.90;;;;;;5032893;28;19909;-55
2023/12/02 11:48:12;;;;;;;4.28;3.08;;;21.00;29.00;;;;;;5023595;28;21628;-55
2023/12/02 11:50:58;;;;;;;3.78;3.10;;;21.00;29.00;;;;;;5035179;28;20044;-55
2023/12/02 11:53:58;;;;;;;5.90;3.63;;;21.00;29.00;;;;;;4989353;28;20723;-54
2023/12/02 11:56:26;;;;;;;3.72;3.10;;;21.00;28.90;;;;;;5035786;28;20364;-55
2023/12/02 11:59:16;;;;;;;4.10;3.58;;;21.00;29.10;;;;;;5035077;28;20052;-54
2023/12/02 12:01:51;;;;;;;4.13;3.47;;;20.90;28.80;;;;;;5015881;28;20037;-55
2023/12/02 12:04:51;;;;;;;3.65;3.30;;;20.90;29.00;;;;;;5017872;28;20477;-55
2023/12/02 12:07:45;;;;;;;6.50;4.00;;;20.90;28.80;;;;;;5034064;28;20033;-53
2023/12/02 12:10:26;;;;;;;3.50;2.97;;;20.90;28.80;;;;;;5034679;28;20420;-51
2023/12/02 12:12:56;;;;;;;4.65;3.60;;;20.90;28.80;;;;;;5034163;28;20086;-56
2023/12/02 12:15:22;;;;;;;4.63;3.58;;;20.90;28.80;;;;;;5034655;28;20060;-53
2023/12/02 12:17:48;;;;;;;4.55;3.85;;;20.90;28.80;;;;;;5033966;28;20661;-50
2023/12/02 12:20:18;;;;;;;3.05;2.70;;;20.90;28.80;;;;;;5016762;28;20038;-57
2023/12/02 12:22:44;;;;;;;3.30;2.95;;;20.90;28.80;;;;;;5017443;28;20043;-57
2023/12/02 12:25:11;;;;;;;4.47;3.35;;;20.90;28.90;;;;;;5035282;28;20025;-55
2023/12/02 12:27:38;;;;;;;3.65;3.10;;;20.80;28.90;;;;;;5017613;28;20072;-55
2023/12/02 12:30:05;;;;;;;4.50;3.70;;;20.80;28.90;;;;;;5034863;28;20017;-61
2023/12/02 12:32:31;;;;;;;4.38;3.70;;;20.80;28.90;;;;;;5031136;28;20034;-59
2023/12/02 12:34:57;;;;;;;4.45;4.03;;;20.70;28.90;;;;;;5034049;28;20025;-58
2023/12/02 12:37:23;;;;;;;4.13;3.40;;;20.70;28.90;;;;;;5034650;28;20395;-57
2023/12/02 12:39:50;;;;;;;4.30;3.50;;;20.70;28.90;;;;;;5034481;28;20040;-58
2023/12/02 12:42:21;;;;;;;4.35;3.15;;;20.60;28.90;;;;;;5031508;28;20106;-53
2023/12/02 12:45:01;;;;;;;4.85;2.85;;;20.60;28.90;;;;;;5016457;28;20037;-56
2023/12/02 12:47:30;;;;;;;4.55;3.40;;;20.60;28.90;;;;;;5033849;28;20037;-57
2023/12/02 12:50:02;;;;;;;4.75;3.45;;;20.60;28.90;;;;;;5031829;28;20174;-58
2023/12/02 12:52:31;;;;;;;4.55;3.55;;;20.50;28.90;;;;;;5030243;28;20053;-58
2023/12/02 12:54:59;;;;;;;5.63;3.42;;;20.50;28.90;;;;;;5030318;28;20337;-59
2023/12/02 12:57:35;;;;;;;5.28;3.45;;;20.50;29.00;;;;;;5015992;28;20575;-60